sensor_id;sensor_type;location;lat;lon;timestamp;pressure;altitude;pressure_sealevel;temperature;humidity
18022;BME280;9136;48.822;7.966;2022-08-11T00:02:27;100566.66;;;19.13;53.12
18022;BME280;9136;48.822;7.966;2022-08-11T00:05:19;100588.72;;;19.15;50.81
18022;BME280;9136;48.822;7.966;2022-08-11T00:08:08;100581.78;;;19.12;49.88
18022;BME280;9136;48.822;7.966;2022-08-11T00:11:00;100566.06;;;19.08;49.11
18022;BME280;9136;48.822;7.966;2022-08-11T00:13:49;100588.50;;;19.18;49.15
18022;BME280;9136;48.822;7.966;2022-08-11T00:16:37;100574.16;;;19.06;48.86
18022;BME280;9136;48.822;7.966;2022-08-11T00:19:28;100597.16;;;19.07;53.44
18022;BME280;9136;48.822;7.966;2022-08-11T00:22:20;100593.47;;;18.96;52.89
18022;BME280;9136;48.822;7.966;2022-08-11T00:25:09;100584.22;;;18.87;52.97
18022;BME280;9136;48.822;7.966;2022-08-11T00:27:59;100572.53;;;18.75;51.83
18022;BME280;9136;48.822;7.966;2022-08-11T00:30:47;100585.38;;;18.83;54.41
18022;BME280;9136;48.822;7.966;2022-08-11T00:33:41;100591.06;;;18.77;52.09
18022;BME280;9136;48.822;7.966;2022-08-11T00:36:38;100600.75;;;18.78;56.30
18022;BME280;9136;48.822;7.966;2022-08-11T00:39:31;100580.03;;;18.69;52.01
18022;BME280;9136;48.822;7.966;2022-08-11T00:42:32;100585.66;;;18.78;53.06
18022;BME280;9136;48.822;7.966;2022-08-11T00:45:33;100591.38;;;18.86;54.35
18022;BME280;9136;48.822;7.966;2022-08-11T00:48:27;100585.44;;;18.81;55.32
18022;BME280;9136;48.822;7.966;2022-08-11T00:51:24;100579.44;;;18.64;55.95
18022;BME280;9136;48.822;7.966;2022-08-11T00:54:42;100603.72;;;18.73;51.94
18022;BME280;9136;48.822;7.966;2022-08-11T00:57:55;100576.94;;;18.60;52.88
18022;BME280;9136;48.822;7.966;2022-08-11T01:01:12;100577.78;;;18.61;53.02
18022;BME280;9136;48.822;7.966;2022-08-11T01:04:19;100561.81;;;18.47;54.00
18022;BME280;9136;48.822;7.966;2022-08-11T01:07:51;100588.63;;;18.58;53.00
18022;BME280;9136;48.822;7.966;2022-08-11T01:10:57;100588.28;;;18.64;52.58
18022;BME280;9136;48.822;7.966;2022-08-11T01:14:20;100569.59;;;18.50;51.75
18022;BME280;9136;48.822;7.966;2022-08-11T01:35:12;100585.78;;;18.31;53.37
18022;BME280;9136;48.822;7.966;2022-08-11T01:42:04;100584.75;;;18.03;54.39
18022;BME280;9136;48.822;7.966;2022-08-11T01:45:28;100591.09;;;18.01;58.41
18022;BME280;9136;48.822;7.966;2022-08-11T01:48:26;100581.19;;;17.89;60.99
18022;BME280;9136;48.822;7.966;2022-08-11T01:51:26;100592.16;;;17.83;55.19
18022;BME280;9136;48.822;7.966;2022-08-11T01:54:21;100606.19;;;17.85;56.24
18022;BME280;9136;48.822;7.966;2022-08-11T01:57:27;100585.81;;;17.69;57.75
18022;BME280;9136;48.822;7.966;2022-08-11T02:00:19;100592.34;;;17.80;59.80
18022;BME280;9136;48.822;7.966;2022-08-11T02:03:13;100592.06;;;17.68;58.54
18022;BME280;9136;48.822;7.966;2022-08-11T02:06:11;100591.44;;;17.63;59.48
18022;BME280;9136;48.822;7.966;2022-08-11T02:09:22;100582.38;;;17.52;56.66
18022;BME280;9136;48.822;7.966;2022-08-11T02:12:15;100601.31;;;17.61;55.75
18022;BME280;9136;48.822;7.966;2022-08-11T02:15:13;100594.28;;;17.60;55.36
18022;BME280;9136;48.822;7.966;2022-08-11T02:18:05;100598.47;;;17.64;55.36
18022;BME280;9136;48.822;7.966;2022-08-11T02:20:56;100604.22;;;17.57;56.37
18022;BME280;9136;48.822;7.966;2022-08-11T02:24:07;100593.94;;;17.51;55.33
18022;BME280;9136;48.822;7.966;2022-08-11T02:27:05;100562.47;;;17.27;61.16
18022;BME280;9136;48.822;7.966;2022-08-11T02:29:58;100566.16;;;17.25;58.41
18022;BME280;9136;48.822;7.966;2022-08-11T02:32:57;100580.63;;;17.35;61.22
18022;BME280;9136;48.822;7.966;2022-08-11T02:36:15;100567.09;;;17.24;59.91
18022;BME280;9136;48.822;7.966;2022-08-11T02:39:08;100568.22;;;17.20;57.71
18022;BME280;9136;48.822;7.966;2022-08-11T02:42:06;100580.63;;;17.35;60.48
18022;BME280;9136;48.822;7.966;2022-08-11T02:45:27;100567.78;;;17.27;56.79
18022;BME280;9136;48.822;7.966;2022-08-11T02:48:28;100588.59;;;17.35;57.16
18022;BME280;9136;48.822;7.966;2022-08-11T02:51:41;100588.69;;;17.33;56.25
18022;BME280;9136;48.822;7.966;2022-08-11T02:54:38;100567.09;;;17.24;55.42
18022;BME280;9136;48.822;7.966;2022-08-11T02:57:33;100593.16;;;17.33;56.38
18022;BME280;9136;48.822;7.966;2022-08-11T03:00:25;100585.69;;;17.24;56.87
18022;BME280;9136;48.822;7.966;2022-08-11T03:03:17;100595.25;;;17.26;56.54
18022;BME280;9136;48.822;7.966;2022-08-11T03:06:23;100596.13;;;17.27;61.53
18022;BME280;9136;48.822;7.966;2022-08-11T03:09:18;100585.13;;;17.17;61.93
18022;BME280;9136;48.822;7.966;2022-08-11T03:12:15;100600.56;;;17.26;56.25
18022;BME280;9136;48.822;7.966;2022-08-11T03:15:27;100600.16;;;17.34;57.37
18022;BME280;9136;48.822;7.966;2022-08-11T03:18:53;100583.97;;;17.23;55.96
18022;BME280;9136;48.822;7.966;2022-08-11T03:21:47;100568.34;;;17.16;56.13
18022;BME280;9136;48.822;7.966;2022-08-11T03:24:55;100600.56;;;17.26;56.44
18022;BME280;9136;48.822;7.966;2022-08-11T03:27:49;100601.44;;;17.27;58.48
18022;BME280;9136;48.822;7.966;2022-08-11T03:30:47;100596.84;;;17.30;56.31
18022;BME280;9136;48.822;7.966;2022-08-11T03:33:40;100593.31;;;17.30;55.62
18022;BME280;9136;48.822;7.966;2022-08-11T03:37:10;100590.75;;;17.28;60.06
18022;BME280;9136;48.822;7.966;2022-08-11T03:40:44;100603.09;;;17.29;56.23
18022;BME280;9136;48.822;7.966;2022-08-11T03:44:03;100582.44;;;17.19;57.27
18022;BME280;9136;48.822;7.966;2022-08-11T03:47:07;100578.38;;;17.11;61.31
18022;BME280;9136;48.822;7.966;2022-08-11T03:50:05;100606.31;;;17.19;57.55
18022;BME280;9136;48.822;7.966;2022-08-11T03:53:07;100592.25;;;17.01;61.75
18022;BME280;9136;48.822;7.966;2022-08-11T03:56:17;100605.16;;;17.07;58.61
18022;BME280;9136;48.822;7.966;2022-08-11T04:06:30;100604.31;;;17.06;62.37
18022;BME280;9136;48.822;7.966;2022-08-11T04:10:03;100594.72;;;17.04;58.97
18022;BME280;9136;48.822;7.966;2022-08-11T04:13:12;100615.47;;;17.13;60.68
18022;BME280;9136;48.822;7.966;2022-08-11T04:16:28;100585.34;;;16.97;58.15
18022;BME280;9136;48.822;7.966;2022-08-11T04:23:26;100608.19;;;17.16;58.46
18022;BME280;9136;48.822;7.966;2022-08-11T04:29:48;100606.66;;;17.12;58.51
18022;BME280;9136;48.822;7.966;2022-08-11T04:33:13;100583.66;;;16.96;60.53
18022;BME280;9136;48.822;7.966;2022-08-11T04:36:29;100572.00;;;16.98;58.28
18022;BME280;9136;48.822;7.966;2022-08-11T04:39:52;100583.78;;;17.10;58.10
18022;BME280;9136;48.822;7.966;2022-08-11T04:46:32;100599.44;;;17.14;58.36
18022;BME280;9136;48.822;7.966;2022-08-11T04:49:55;100599.84;;;17.07;60.75
18022;BME280;9136;48.822;7.966;2022-08-11T04:53:25;100581.34;;;17.05;58.57
18022;BME280;9136;48.822;7.966;2022-08-11T04:56:35;100578.97;;;17.01;61.00
18022;BME280;9136;48.822;7.966;2022-08-11T04:59:55;100613.34;;;17.20;58.69
18022;BME280;9136;48.822;7.966;2022-08-11T05:10:12;100631.06;;;17.19;64.90
18022;BME280;9136;48.822;7.966;2022-08-11T05:13:05;100627.22;;;17.25;60.94
18022;BME280;9136;48.822;7.966;2022-08-11T05:16:09;100639.31;;;17.30;60.90
18022;BME280;9136;48.822;7.966;2022-08-11T05:19:16;100619.69;;;17.33;61.00
18022;BME280;9136;48.822;7.966;2022-08-11T05:22:27;100626.81;;;17.32;60.84
18022;BME280;9136;48.822;7.966;2022-08-11T05:25:34;100604.53;;;17.19;65.56
18022;BME280;9136;48.822;7.966;2022-08-11T05:28:48;100619.78;;;17.31;61.27
18022;BME280;9136;48.822;7.966;2022-08-11T05:31:56;100591.84;;;17.24;61.34
18022;BME280;9136;48.822;7.966;2022-08-11T05:35:05;100627.84;;;17.45;64.40
18022;BME280;9136;48.822;7.966;2022-08-11T05:37:55;100614.66;;;17.44;61.57
18022;BME280;9136;48.822;7.966;2022-08-11T05:41:02;100620.41;;;17.52;61.73
18022;BME280;9136;48.822;7.966;2022-08-11T05:44:09;100597.00;;;17.43;67.58
18022;BME280;9136;48.822;7.966;2022-08-11T05:47:23;100613.97;;;17.56;61.93
18022;BME280;9136;48.822;7.966;2022-08-11T05:50:29;100599.59;;;17.60;63.86
18022;BME280;9136;48.822;7.966;2022-08-11T05:53:34;100619.09;;;17.77;60.97
18022;BME280;9136;48.822;7.966;2022-08-11T05:56:43;100620.28;;;17.87;65.96
18022;BME280;9136;48.822;7.966;2022-08-11T05:59:35;100623.34;;;17.95;64.12
18022;BME280;9136;48.822;7.966;2022-08-11T06:02:24;100612.72;;;17.95;72.80
18022;BME280;9136;48.822;7.966;2022-08-11T06:05:12;100608.44;;;17.92;69.24
18022;BME280;9136;48.822;7.966;2022-08-11T06:08:01;100626.00;;;18.11;77.35
18022;BME280;9136;48.822;7.966;2022-08-11T06:10:49;100623.09;;;18.15;67.47
18022;BME280;9136;48.822;7.966;2022-08-11T06:13:42;100593.75;;;18.01;76.87
18022;BME280;9136;48.822;7.966;2022-08-11T06:16:32;100593.94;;;17.98;65.43
18022;BME280;9136;48.822;7.966;2022-08-11T06:19:21;100608.59;;;18.05;73.38
18022;BME280;9136;48.822;7.966;2022-08-11T06:22:19;100615.16;;;18.14;70.50
18022;BME280;9136;48.822;7.966;2022-08-11T06:25:10;100605.81;;;18.22;71.69
18022;BME280;9136;48.822;7.966;2022-08-11T06:27:59;100611.94;;;18.39;69.95
18022;BME280;9136;48.822;7.966;2022-08-11T06:30:47;100623.75;;;18.49;64.73
18022;BME280;9136;48.822;7.966;2022-08-11T06:33:45;100594.09;;;18.41;71.93
18022;BME280;9136;48.822;7.966;2022-08-11T06:36:47;100618.72;;;18.74;64.07
18022;BME280;9136;48.822;7.966;2022-08-11T06:39:44;100606.94;;;18.78;69.55
18022;BME280;9136;48.822;7.966;2022-08-11T06:42:42;100595.72;;;18.87;68.48
18022;BME280;9136;48.822;7.966;2022-08-11T06:45:40;100610.59;;;19.06;62.96
18022;BME280;9136;48.822;7.966;2022-08-11T06:48:39;100597.84;;;19.25;61.35
18022;BME280;9136;48.822;7.966;2022-08-11T06:51:27;100597.91;;;19.38;60.80
18022;BME280;9136;48.822;7.966;2022-08-11T06:54:15;100608.19;;;19.44;59.30
18022;BME280;9136;48.822;7.966;2022-08-11T06:57:05;100608.66;;;19.51;57.25
18022;BME280;9136;48.822;7.966;2022-08-11T07:00:11;100630.72;;;19.81;58.90
18022;BME280;9136;48.822;7.966;2022-08-11T07:03:16;100623.09;;;19.89;57.24
18022;BME280;9136;48.822;7.966;2022-08-11T07:06:19;100634.06;;;20.12;56.56
18022;BME280;9136;48.822;7.966;2022-08-11T07:09:27;100630.28;;;20.28;55.12
18022;BME280;9136;48.822;7.966;2022-08-11T07:12:39;100608.25;;;20.25;57.19
18022;BME280;9136;48.822;7.966;2022-08-11T07:15:47;100616.22;;;20.39;54.37
18022;BME280;9136;48.822;7.966;2022-08-11T07:18:38;100632.22;;;20.66;58.66
18022;BME280;9136;48.822;7.966;2022-08-11T07:21:46;100639.59;;;20.75;57.63
18022;BME280;9136;48.822;7.966;2022-08-11T07:24:55;100624.41;;;21.01;57.39
18022;BME280;9136;48.822;7.966;2022-08-11T07:28:04;100608.72;;;21.09;55.38
18022;BME280;9136;48.822;7.966;2022-08-11T07:31:13;100623.78;;;21.36;54.14
18022;BME280;9136;48.822;7.966;2022-08-11T07:34:12;100602.72;;;21.44;51.40
18022;BME280;9136;48.822;7.966;2022-08-11T07:37:11;100640.72;;;21.73;50.17
18022;BME280;9136;48.822;7.966;2022-08-11T07:40:01;100628.09;;;21.75;48.60
18022;BME280;9136;48.822;7.966;2022-08-11T07:42:51;100631.13;;;21.94;47.69
18022;BME280;9136;48.822;7.966;2022-08-11T07:45:41;100627.13;;;22.00;50.07
18022;BME280;9136;48.822;7.966;2022-08-11T07:48:46;100622.63;;;22.13;47.39
18022;BME280;9136;48.822;7.966;2022-08-11T07:51:52;100602.72;;;22.28;49.39
18022;BME280;9136;48.822;7.966;2022-08-11T07:55:00;100596.69;;;22.38;47.55
18022;BME280;9136;48.822;7.966;2022-08-11T07:57:48;100604.66;;;22.50;48.69
18022;BME280;9136;48.822;7.966;2022-08-11T08:00:55;100613.19;;;22.67;46.17
18022;BME280;9136;48.822;7.966;2022-08-11T08:04:01;100620.81;;;22.84;46.01
18022;BME280;9136;48.822;7.966;2022-08-11T08:07:08;100611.09;;;23.05;43.73
18022;BME280;9136;48.822;7.966;2022-08-11T08:10:16;100615.75;;;23.26;47.71
18022;BME280;9136;48.822;7.966;2022-08-11T08:13:22;100610.03;;;23.41;45.93
18022;BME280;9136;48.822;7.966;2022-08-11T08:16:29;100609.88;;;23.54;43.85
18022;BME280;9136;48.822;7.966;2022-08-11T08:19:35;100596.25;;;23.57;46.29
18022;BME280;9136;48.822;7.966;2022-08-11T08:22:23;100620.25;;;23.70;45.35
18022;BME280;9136;48.822;7.966;2022-08-11T08:25:12;100600.88;;;23.78;43.03
18022;BME280;9136;48.822;7.966;2022-08-11T08:28:06;100614.94;;;24.02;44.93
18022;BME280;9136;48.822;7.966;2022-08-11T08:30:54;100584.19;;;24.06;43.85
18022;BME280;9136;48.822;7.966;2022-08-11T08:33:42;100596.44;;;24.20;43.09
18022;BME280;9136;48.822;7.966;2022-08-11T08:36:30;100597.16;;;24.33;44.84
18022;BME280;9136;48.822;7.966;2022-08-11T08:39:19;100599.00;;;24.53;43.80
18022;BME280;9136;48.822;7.966;2022-08-11T08:42:09;100605.03;;;24.67;44.74
18022;BME280;9136;48.822;7.966;2022-08-11T08:45:03;100588.84;;;24.78;42.44
18022;BME280;9136;48.822;7.966;2022-08-11T08:47:58;100606.28;;;25.04;41.59
18022;BME280;9136;48.822;7.966;2022-08-11T08:50:50;100584.97;;;25.13;43.71
18022;BME280;9136;48.822;7.966;2022-08-11T08:54:00;100575.63;;;25.17;40.89
18022;BME280;9136;48.822;7.966;2022-08-11T08:56:51;100608.63;;;25.28;39.46
18022;BME280;9136;48.822;7.966;2022-08-11T08:59:44;100589.81;;;25.28;39.27
18022;BME280;9136;48.822;7.966;2022-08-11T09:02:36;100591.88;;;25.46;41.03
18022;BME280;9136;48.822;7.966;2022-08-11T09:05:24;100584.66;;;25.46;38.93
18022;BME280;9136;48.822;7.966;2022-08-11T09:08:13;100591.44;;;25.81;41.74
18022;BME280;9136;48.822;7.966;2022-08-11T09:11:01;100587.22;;;25.98;38.61
18022;BME280;9136;48.822;7.966;2022-08-11T09:14:08;100584.09;;;26.02;41.37
18022;BME280;9136;48.822;7.966;2022-08-11T09:16:56;100594.44;;;26.26;38.76
18022;BME280;9136;48.822;7.966;2022-08-11T09:19:46;100557.84;;;26.23;38.25
18022;BME280;9136;48.822;7.966;2022-08-11T09:22:38;100571.47;;;26.51;37.33
18022;BME280;9136;48.822;7.966;2022-08-11T09:25:44;100587.06;;;26.57;36.10
18022;BME280;9136;48.822;7.966;2022-08-11T09:28:49;100559.16;;;26.39;37.65
18022;BME280;9136;48.822;7.966;2022-08-11T09:31:39;100556.59;;;26.47;35.78
18022;BME280;9136;48.822;7.966;2022-08-11T09:34:28;100564.06;;;26.63;38.56
18022;BME280;9136;48.822;7.966;2022-08-11T09:37:20;100570.31;;;26.63;35.27
18022;BME280;9136;48.822;7.966;2022-08-11T09:40:27;100572.09;;;26.82;35.64
18022;BME280;9136;48.822;7.966;2022-08-11T09:43:19;100543.44;;;26.91;37.82
18022;BME280;9136;48.822;7.966;2022-08-11T09:46:26;100541.13;;;27.05;37.91
18022;BME280;9136;48.822;7.966;2022-08-11T09:49:14;100552.63;;;27.07;34.28
18022;BME280;9136;48.822;7.966;2022-08-11T09:52:06;100548.38;;;27.05;37.73
18022;BME280;9136;48.822;7.966;2022-08-11T09:54:56;100568.03;;;27.25;36.54
18022;BME280;9136;48.822;7.966;2022-08-11T09:57:46;100537.28;;;27.35;33.45
18022;BME280;9136;48.822;7.966;2022-08-11T10:00:55;100545.66;;;27.60;33.03
18022;BME280;9136;48.822;7.966;2022-08-11T10:03:45;100543.38;;;27.65;34.13
18022;BME280;9136;48.822;7.966;2022-08-11T10:06:36;100570.78;;;27.88;35.85
18022;BME280;9136;48.822;7.966;2022-08-11T10:09:46;100560.47;;;28.01;32.46
18022;BME280;9136;48.822;7.966;2022-08-11T10:12:41;100571.13;;;28.20;32.88
18022;BME280;9136;48.822;7.966;2022-08-11T10:15:35;100545.56;;;28.15;32.24
18022;BME280;9136;48.822;7.966;2022-08-11T10:18:30;100570.41;;;28.54;31.61
18022;BME280;9136;48.822;7.966;2022-08-11T10:21:37;100533.81;;;28.24;33.08
18022;BME280;9136;48.822;7.966;2022-08-11T10:24:25;100546.66;;;28.40;32.81
18022;BME280;9136;48.822;7.966;2022-08-11T10:27:31;100555.66;;;28.48;33.16
18022;BME280;9136;48.822;7.966;2022-08-11T10:30:20;100538.78;;;28.11;30.17
18022;BME280;9136;48.822;7.966;2022-08-11T10:33:26;100532.28;;;28.04;29.90
18022;BME280;9136;48.822;7.966;2022-08-11T10:36:33;100532.81;;;28.07;29.61
18022;BME280;9136;48.822;7.966;2022-08-11T10:39:28;100519.47;;;28.06;30.79
18022;BME280;9136;48.822;7.966;2022-08-11T10:42:16;100534.94;;;28.31;28.96
18022;BME280;9136;48.822;7.966;2022-08-11T10:45:23;100536.47;;;28.60;30.54
18022;BME280;9136;48.822;7.966;2022-08-11T10:48:34;100541.94;;;28.68;29.91
18022;BME280;9136;48.822;7.966;2022-08-11T10:51:24;100531.19;;;28.76;30.00
18022;BME280;9136;48.822;7.966;2022-08-11T10:54:31;100532.91;;;28.85;29.77
18022;BME280;9136;48.822;7.966;2022-08-11T10:57:37;100526.72;;;28.93;33.29
18022;BME280;9136;48.822;7.966;2022-08-11T11:00:44;100513.63;;;29.48;31.73
18022;BME280;9136;48.822;7.966;2022-08-11T11:03:33;100518.63;;;30.42;28.58
18022;BME280;9136;48.822;7.966;2022-08-11T11:06:25;100514.09;;;32.00;28.03
18022;BME280;9136;48.822;7.966;2022-08-11T11:09:19;100543.56;;;33.16;25.87
18022;BME280;9136;48.822;7.966;2022-08-11T11:12:10;100521.53;;;34.26;25.16
18022;BME280;9136;48.822;7.966;2022-08-11T11:15:19;100532.06;;;35.19;22.74
18022;BME280;9136;48.822;7.966;2022-08-11T11:18:27;100537.84;;;36.12;23.75
18022;BME280;9136;48.822;7.966;2022-08-11T11:21:19;100523.44;;;35.70;22.76
18022;BME280;9136;48.822;7.966;2022-08-11T11:24:13;100525.59;;;35.88;23.64
18022;BME280;9136;48.822;7.966;2022-08-11T11:27:11;100529.28;;;37.33;20.47
18022;BME280;9136;48.822;7.966;2022-08-11T11:30:04;100532.28;;;38.76;20.88
18022;BME280;9136;48.822;7.966;2022-08-11T11:33:07;100524.22;;;38.56;20.90
18022;BME280;9136;48.822;7.966;2022-08-11T11:36:10;100513.94;;;38.51;22.34
18022;BME280;9136;48.822;7.966;2022-08-11T11:39:00;100498.97;;;37.97;19.55
18022;BME280;9136;48.822;7.966;2022-08-11T11:41:48;100497.22;;;37.33;19.77
18022;BME280;9136;48.822;7.966;2022-08-11T11:44:39;100511.69;;;36.76;20.10
18022;BME280;9136;48.822;7.966;2022-08-11T11:47:31;100498.44;;;36.92;20.96
18022;BME280;9136;48.822;7.966;2022-08-11T11:50:24;100513.25;;;36.52;20.71
18022;BME280;9136;48.822;7.966;2022-08-11T11:53:14;100500.19;;;36.54;21.07
18022;BME280;9136;48.822;7.966;2022-08-11T11:56:03;100470.06;;;36.60;21.25
18022;BME280;9136;48.822;7.966;2022-08-11T11:58:51;100473.78;;;37.75;22.09
18022;BME280;9136;48.822;7.966;2022-08-11T12:01:58;100483.31;;;39.09;19.02
18022;BME280;9136;48.822;7.966;2022-08-11T12:04:49;100461.94;;;39.60;20.27
18022;BME280;9136;48.822;7.966;2022-08-11T12:07:37;100466.88;;;38.66;18.77
18022;BME280;9136;48.822;7.966;2022-08-11T12:10:47;100470.28;;;38.25;19.18
18022;BME280;9136;48.822;7.966;2022-08-11T12:13:35;100473.47;;;37.90;19.82
18022;BME280;9136;48.822;7.966;2022-08-11T12:16:26;100467.00;;;38.34;19.81
18022;BME280;9136;48.822;7.966;2022-08-11T12:19:17;100466.47;;;38.19;20.06
18022;BME280;9136;48.822;7.966;2022-08-11T12:22:06;100461.56;;;38.28;18.68
18022;BME280;9136;48.822;7.966;2022-08-11T12:25:12;100472.47;;;38.78;18.06
18022;BME280;9136;48.822;7.966;2022-08-11T12:28:19;100448.50;;;39.21;19.04
18022;BME280;9136;48.822;7.966;2022-08-11T12:31:08;100438.28;;;39.82;16.63
18022;BME280;9136;48.822;7.966;2022-08-11T12:34:00;100440.53;;;40.15;19.35
18022;BME280;9136;48.822;7.966;2022-08-11T12:36:50;100441.06;;;39.52;19.80
18022;BME280;9136;48.822;7.966;2022-08-11T12:39:43;100434.50;;;38.75;18.12
18022;BME280;9136;48.822;7.966;2022-08-11T12:42:51;100435.16;;;38.70;18.98
18022;BME280;9136;48.822;7.966;2022-08-11T12:46:00;100423.00;;;38.96;18.25
18022;BME280;9136;48.822;7.966;2022-08-11T12:48:54;100430.09;;;38.49;17.98
18022;BME280;9136;48.822;7.966;2022-08-11T12:52:04;100411.03;;;38.10;17.62
18022;BME280;9136;48.822;7.966;2022-08-11T12:54:58;100422.09;;;38.04;17.44
18022;BME280;9136;48.822;7.966;2022-08-11T12:57:48;100404.50;;;38.55;19.07
18022;BME280;9136;48.822;7.966;2022-08-11T13:00:53;100424.63;;;39.04;18.16
18022;BME280;9136;48.822;7.966;2022-08-11T13:04:00;100423.88;;;39.57;16.78
18022;BME280;9136;48.822;7.966;2022-08-11T13:07:05;100401.91;;;40.62;17.36
18022;BME280;9136;48.822;7.966;2022-08-11T13:09:54;100413.06;;;41.07;17.63
18022;BME280;9136;48.822;7.966;2022-08-11T13:12:42;100418.44;;;40.62;17.38
18022;BME280;9136;48.822;7.966;2022-08-11T13:15:35;100420.63;;;40.13;16.76
18022;BME280;9136;48.822;7.966;2022-08-11T13:18:23;100411.97;;;40.68;15.40
18022;BME280;9136;48.822;7.966;2022-08-11T13:21:14;100398.97;;;41.21;15.80
18022;BME280;9136;48.822;7.966;2022-08-11T13:24:03;100417.09;;;41.16;15.29
18022;BME280;9136;48.822;7.966;2022-08-11T13:26:52;100391.38;;;39.65;15.74
18022;BME280;9136;48.822;7.966;2022-08-11T13:29:41;100388.78;;;39.94;18.46
18022;BME280;9136;48.822;7.966;2022-08-11T13:32:32;100390.16;;;40.78;17.35
18022;BME280;9136;48.822;7.966;2022-08-11T13:35:20;100384.75;;;40.72;16.82
18022;BME280;9136;48.822;7.966;2022-08-11T13:38:10;100387.75;;;39.11;18.43
18022;BME280;9136;48.822;7.966;2022-08-11T13:40:59;100374.59;;;38.65;16.42
18022;BME280;9136;48.822;7.966;2022-08-11T13:43:47;100370.75;;;39.33;17.82
18022;BME280;9136;48.822;7.966;2022-08-11T13:46:35;100360.31;;;40.23;16.99
18022;BME280;9136;48.822;7.966;2022-08-11T13:49:24;100369.28;;;41.11;17.36
18022;BME280;9136;48.822;7.966;2022-08-11T13:52:13;100355.63;;;40.47;16.94
18022;BME280;9136;48.822;7.966;2022-08-11T13:55:04;100363.34;;;40.62;16.37
18022;BME280;9136;48.822;7.966;2022-08-11T13:57:53;100342.34;;;40.32;16.78
18022;BME280;9136;48.822;7.966;2022-08-11T14:00:43;100365.59;;;39.78;17.06
18022;BME280;9136;48.822;7.966;2022-08-11T14:03:32;100353.59;;;40.43;17.63
18022;BME280;9136;48.822;7.966;2022-08-11T14:06:21;100353.56;;;41.40;16.28
18022;BME280;9136;48.822;7.966;2022-08-11T14:09:10;100348.72;;;41.30;15.08
18022;BME280;9136;48.822;7.966;2022-08-11T14:12:01;100344.50;;;41.11;16.21
18022;BME280;9136;48.822;7.966;2022-08-11T14:15:15;100343.34;;;40.67;16.00
18022;BME280;9136;48.822;7.966;2022-08-11T14:18:08;100330.28;;;39.63;16.49
18022;BME280;9136;48.822;7.966;2022-08-11T14:21:01;100321.88;;;38.56;17.79
18022;BME280;9136;48.822;7.966;2022-08-11T14:24:08;100315.41;;;38.99;17.06
18022;BME280;9136;48.822;7.966;2022-08-11T14:26:57;100332.09;;;39.69;18.02
18022;BME280;9136;48.822;7.966;2022-08-11T14:29:47;100345.13;;;40.21;16.24
18022;BME280;9136;48.822;7.966;2022-08-11T14:32:35;100326.22;;;40.13;17.56
18022;BME280;9136;48.822;7.966;2022-08-11T14:35:24;100316.59;;;40.50;16.17
18022;BME280;9136;48.822;7.966;2022-08-11T14:38:14;100319.41;;;40.15;16.58
18022;BME280;9136;48.822;7.966;2022-08-11T14:41:03;100308.00;;;41.04;17.11
18022;BME280;9136;48.822;7.966;2022-08-11T14:44:09;100299.69;;;40.07;16.80
18022;BME280;9136;48.822;7.966;2022-08-11T14:47:17;100317.75;;;39.67;16.85
18022;BME280;9136;48.822;7.966;2022-08-11T14:50:08;100294.78;;;39.73;17.41
18022;BME280;9136;48.822;7.966;2022-08-11T14:53:00;100297.81;;;39.18;17.22
18022;BME280;9136;48.822;7.966;2022-08-11T14:55:50;100299.16;;;38.49;17.13
18022;BME280;9136;48.822;7.966;2022-08-11T14:58:56;100298.69;;;39.31;16.33
18022;BME280;9136;48.822;7.966;2022-08-11T15:01:44;100299.63;;;39.36;18.14
18022;BME280;9136;48.822;7.966;2022-08-11T15:04:51;100301.31;;;39.07;16.46
18022;BME280;9136;48.822;7.966;2022-08-11T15:07:41;100289.69;;;38.63;18.04
18022;BME280;9136;48.822;7.966;2022-08-11T15:10:29;100280.50;;;37.60;17.66
18022;BME280;9136;48.822;7.966;2022-08-11T15:13:18;100282.72;;;37.76;18.80
18022;BME280;9136;48.822;7.966;2022-08-11T15:16:06;100285.44;;;36.94;18.46
18022;BME280;9136;48.822;7.966;2022-08-11T15:19:12;100279.91;;;37.33;17.68
18022;BME280;9136;48.822;7.966;2022-08-11T15:22:02;100265.09;;;36.39;18.80
18022;BME280;9136;48.822;7.966;2022-08-11T15:25:07;100282.06;;;35.76;19.68
18022;BME280;9136;48.822;7.966;2022-08-11T15:27:56;100279.75;;;35.73;18.36
18022;BME280;9136;48.822;7.966;2022-08-11T15:31:03;100260.38;;;35.95;19.99
18022;BME280;9136;48.822;7.966;2022-08-11T15:34:26;100280.66;;;36.32;18.90
18022;BME280;9136;48.822;7.966;2022-08-11T15:37:35;100253.19;;;36.07;19.82
18022;BME280;9136;48.822;7.966;2022-08-11T15:40:27;100258.09;;;36.50;19.52
18022;BME280;9136;48.822;7.966;2022-08-11T15:43:39;100242.09;;;35.89;21.33
18022;BME280;9136;48.822;7.966;2022-08-11T15:46:48;100257.22;;;35.98;19.26
18022;BME280;9136;48.822;7.966;2022-08-11T15:49:38;100257.19;;;36.11;19.18
18022;BME280;9136;48.822;7.966;2022-08-11T15:52:31;100260.41;;;34.95;19.79
18022;BME280;9136;48.822;7.966;2022-08-11T15:55:22;100258.94;;;35.06;22.00
18022;BME280;9136;48.822;7.966;2022-08-11T15:58:12;100260.00;;;34.98;21.36
18022;BME280;9136;48.822;7.966;2022-08-11T16:01:19;100245.94;;;35.15;19.72
18022;BME280;9136;48.822;7.966;2022-08-11T16:04:27;100239.53;;;34.68;20.40
18022;BME280;9136;48.822;7.966;2022-08-11T16:07:19;100243.84;;;34.36;19.78
18022;BME280;9136;48.822;7.966;2022-08-11T16:10:12;100243.50;;;34.11;20.67
18022;BME280;9136;48.822;7.966;2022-08-11T16:13:05;100226.16;;;33.49;22.08
18022;BME280;9136;48.822;7.966;2022-08-11T16:16:12;100224.88;;;33.24;22.57
18022;BME280;9136;48.822;7.966;2022-08-11T16:19:04;100231.34;;;32.95;22.79
18022;BME280;9136;48.822;7.966;2022-08-11T16:21:55;100235.75;;;32.60;21.83
18022;BME280;9136;48.822;7.966;2022-08-11T16:24:44;100262.81;;;32.46;23.99
18022;BME280;9136;48.822;7.966;2022-08-11T16:27:36;100243.13;;;32.44;22.79
18022;BME280;9136;48.822;7.966;2022-08-11T16:30:27;100234.44;;;32.34;22.03
18022;BME280;9136;48.822;7.966;2022-08-11T16:33:17;100233.34;;;32.50;22.72